createdAt,value
2022-09-06T00:00:34.317Z,981.41
2022-09-06T00:01:34.243Z,981.40
2022-09-06T00:02:34.195Z,981.38
2022-09-06T00:03:34.120Z,981.39
2022-09-06T00:04:34.076Z,981.36
2022-09-06T00:05:33.940Z,981.33
2022-09-06T00:06:33.868Z,981.34
2022-09-06T00:07:33.789Z,981.31
2022-09-06T00:08:33.718Z,981.28
2022-09-06T00:09:33.663Z,981.30
2022-09-06T00:10:33.569Z,981.26
2022-09-06T00:11:33.493Z,981.28
2022-09-06T00:12:33.413Z,981.26
2022-09-06T00:13:33.342Z,981.25
2022-09-06T00:14:33.267Z,981.26
2022-09-06T00:15:33.244Z,981.27
2022-09-06T00:16:33.136Z,981.26
2022-09-06T00:17:33.042Z,981.28
2022-09-06T00:18:32.965Z,981.28
2022-09-06T00:19:32.893Z,981.26
2022-09-06T00:20:32.812Z,981.28
2022-09-06T00:21:32.743Z,981.31
2022-09-06T00:22:32.665Z,981.27
2022-09-06T00:23:32.597Z,981.29
2022-09-06T00:24:32.516Z,981.31
2022-09-06T00:25:32.438Z,981.30
2022-09-06T00:26:32.365Z,981.29
2022-09-06T00:27:32.293Z,981.31
2022-09-06T00:28:32.216Z,981.32
2022-09-06T00:29:32.144Z,981.34
2022-09-06T00:30:32.064Z,981.38
2022-09-06T00:31:32.041Z,981.35
2022-09-06T00:32:31.918Z,981.38
2022-09-06T00:33:31.843Z,981.40
2022-09-06T00:34:31.768Z,981.40
2022-09-06T00:35:31.701Z,981.39
2022-09-06T00:36:31.613Z,981.40
2022-09-06T00:37:31.535Z,981.42
2022-09-06T00:38:31.467Z,981.43
2022-09-06T00:39:31.433Z,981.45
2022-09-06T00:40:31.315Z,981.45
2022-09-06T00:41:31.240Z,981.47
2022-09-06T00:42:31.162Z,981.44
2022-09-06T00:43:31.093Z,981.43
2022-09-06T00:44:31.015Z,981.41
2022-09-06T00:45:30.937Z,981.41
2022-09-06T00:46:30.911Z,981.45
2022-09-06T00:47:30.794Z,981.45
2022-09-06T00:48:30.712Z,981.42
2022-09-06T00:49:30.638Z,981.46
2022-09-06T00:50:30.558Z,981.48
2022-09-06T00:51:30.483Z,981.52
2022-09-06T00:52:30.411Z,981.52
2022-09-06T00:53:30.337Z,981.50
2022-09-06T00:54:30.263Z,981.49
2022-09-06T00:55:30.192Z,981.46
2022-09-06T00:56:30.107Z,981.48
2022-09-06T00:57:30.032Z,981.49
2022-09-06T00:58:29.962Z,981.48
2022-09-06T00:59:29.885Z,981.50
2022-09-06T01:00:29.810Z,981.50
2022-09-06T01:01:29.886Z,981.48
2022-09-06T01:02:29.818Z,981.46
2022-09-06T01:03:29.584Z,981.46
2022-09-06T01:04:29.510Z,981.47
2022-09-06T01:05:29.432Z,981.46
2022-09-06T01:06:29.356Z,981.39
2022-09-06T01:07:29.280Z,981.47
2022-09-06T01:08:29.207Z,981.45
2022-09-06T01:09:29.133Z,981.44
2022-09-06T01:10:29.054Z,981.48
2022-09-06T01:11:28.987Z,981.49
2022-09-06T01:12:28.903Z,981.50
2022-09-06T01:13:28.826Z,981.47
2022-09-06T01:14:28.766Z,981.51
2022-09-06T01:15:28.718Z,981.46
2022-09-06T01:16:28.601Z,981.47
2022-09-06T01:17:28.519Z,981.48
2022-09-06T01:18:28.482Z,981.48
2022-09-06T01:19:28.372Z,981.48
2022-09-06T01:20:28.305Z,981.50
2022-09-06T01:21:28.225Z,981.51
2022-09-06T01:22:28.145Z,981.47
2022-09-06T01:23:28.075Z,981.50
2022-09-06T01:24:27.997Z,981.52
2022-09-06T01:25:27.923Z,981.53
2022-09-06T01:26:27.852Z,981.54
2022-09-06T01:27:27.771Z,981.50
2022-09-06T01:28:27.795Z,981.51
2022-09-06T01:29:27.616Z,981.49
2022-09-06T01:30:27.551Z,981.53
2022-09-06T01:31:27.521Z,981.50
2022-09-06T01:32:27.393Z,981.53
2022-09-06T01:33:27.317Z,981.51
2022-09-06T01:34:27.245Z,981.51
2022-09-06T01:35:27.169Z,981.54
2022-09-06T01:36:27.091Z,981.56
2022-09-06T01:37:27.015Z,981.55
2022-09-06T01:38:27.011Z,981.54
2022-09-06T01:39:26.902Z,981.57
2022-09-06T01:40:26.789Z,981.60
2022-09-06T01:41:26.712Z,981.59
2022-09-06T01:42:26.638Z,981.58
2022-09-06T01:43:26.558Z,981.55
2022-09-06T01:44:26.485Z,981.53
2022-09-06T01:45:26.409Z,981.53
2022-09-06T01:46:26.387Z,981.54
2022-09-06T01:47:26.261Z,981.52
2022-09-06T01:48:26.193Z,981.59
2022-09-06T01:49:26.106Z,981.55
2022-09-06T01:50:26.038Z,981.58
2022-09-06T01:51:25.966Z,981.57
2022-09-06T01:52:25.884Z,981.56
2022-09-06T01:53:25.802Z,981.53
2022-09-06T01:54:25.725Z,981.52
2022-09-06T01:55:25.645Z,981.53
2022-09-06T01:56:25.574Z,981.51
2022-09-06T01:57:25.505Z,981.54
2022-09-06T01:58:25.467Z,981.52
2022-09-06T01:59:25.348Z,981.55
2022-09-06T02:00:25.286Z,981.52
2022-09-06T02:01:25.241Z,981.53
2022-09-06T02:02:25.164Z,981.53
2022-09-06T02:03:25.051Z,981.51
2022-09-06T02:04:24.968Z,981.49
2022-09-06T02:05:24.897Z,981.49
2022-09-06T02:06:24.820Z,981.50
2022-09-06T02:07:24.743Z,981.47
2022-09-06T02:08:24.667Z,981.49
2022-09-06T02:09:24.589Z,981.46
2022-09-06T02:10:24.517Z,981.51
2022-09-06T02:11:24.444Z,981.52
2022-09-06T02:12:24.361Z,981.52
2022-09-06T02:13:24.294Z,981.49
2022-09-06T02:14:24.218Z,981.53
2022-09-06T02:15:24.134Z,981.51
2022-09-06T02:16:24.077Z,981.50
2022-09-06T02:17:23.995Z,981.50
2022-09-06T02:18:23.965Z,981.49
2022-09-06T02:19:23.836Z,981.49
2022-09-06T02:20:23.761Z,981.51
2022-09-06T02:21:23.682Z,981.49
2022-09-06T02:22:23.611Z,981.48
2022-09-06T02:23:23.534Z,981.52
2022-09-06T02:24:23.454Z,981.49
2022-09-06T02:25:23.373Z,981.48
2022-09-06T02:26:23.311Z,981.48
2022-09-06T02:27:23.224Z,981.45
2022-09-06T02:28:23.292Z,981.48
2022-09-06T02:29:23.078Z,981.47
2022-09-06T02:30:22.998Z,981.47
2022-09-06T02:31:22.967Z,981.47
2022-09-06T02:32:22.847Z,981.46
2022-09-06T02:33:22.770Z,981.46
2022-09-06T02:34:22.692Z,981.41
2022-09-06T02:35:22.625Z,981.43
2022-09-06T02:36:22.542Z,981.38
2022-09-06T02:37:22.469Z,981.42
2022-09-06T02:38:22.397Z,981.42
2022-09-06T02:39:22.319Z,981.41
2022-09-06T02:40:22.236Z,981.42
2022-09-06T02:41:22.167Z,981.40
2022-09-06T02:42:22.094Z,981.40
2022-09-06T02:43:22.011Z,981.44
2022-09-06T02:44:21.934Z,981.45
2022-09-06T02:45:21.858Z,981.46
2022-09-06T02:46:21.828Z,981.48
2022-09-06T02:47:21.708Z,981.45
2022-09-06T02:48:21.688Z,981.49
2022-09-06T02:49:21.554Z,981.46
2022-09-06T02:50:21.481Z,981.48
2022-09-06T02:51:21.405Z,981.45
2022-09-06T02:52:21.326Z,981.43
2022-09-06T02:53:21.248Z,981.45
2022-09-06T02:54:21.176Z,981.44
2022-09-06T02:55:21.101Z,981.46
2022-09-06T02:56:21.025Z,981.46
2022-09-06T02:57:20.945Z,981.42
2022-09-06T02:58:20.881Z,981.39
2022-09-06T02:59:20.800Z,981.38
2022-09-06T03:00:20.716Z,981.37
2022-09-06T03:01:20.721Z,981.39
2022-09-06T03:02:20.631Z,981.32
2022-09-06T03:03:20.491Z,981.30
2022-09-06T03:04:20.414Z,981.34
2022-09-06T03:05:20.361Z,981.30
2022-09-06T03:06:20.259Z,981.29
2022-09-06T03:07:20.187Z,981.30
2022-09-06T03:08:20.109Z,981.27
2022-09-06T03:09:20.030Z,981.24
2022-09-06T03:10:19.955Z,981.19
2022-09-06T03:11:19.878Z,981.18
2022-09-06T03:12:19.804Z,981.22
2022-09-06T03:13:19.723Z,981.18
2022-09-06T03:14:19.656Z,981.19
2022-09-06T03:15:19.571Z,981.20
2022-09-06T03:16:19.554Z,981.23
2022-09-06T03:17:19.424Z,981.22
2022-09-06T03:18:19.349Z,981.22
2022-09-06T03:19:19.274Z,981.26
2022-09-06T03:20:19.190Z,981.22
2022-09-06T03:21:19.115Z,981.24
2022-09-06T03:22:19.045Z,981.25
2022-09-06T03:23:18.968Z,981.24
2022-09-06T03:24:18.889Z,981.25
2022-09-06T03:25:18.809Z,981.26
2022-09-06T03:26:18.735Z,981.29
2022-09-06T03:27:18.663Z,981.27
2022-09-06T03:28:18.585Z,981.25
2022-09-06T03:29:18.508Z,981.24
2022-09-06T03:30:18.431Z,981.25
2022-09-06T03:31:18.403Z,981.22
2022-09-06T03:32:18.272Z,981.24
2022-09-06T03:33:18.200Z,981.27
2022-09-06T03:34:18.129Z,981.29
2022-09-06T03:35:18.047Z,981.27
2022-09-06T03:36:17.968Z,981.30
2022-09-06T03:37:17.895Z,981.29
2022-09-06T03:38:17.826Z,981.32
2022-09-06T03:39:17.741Z,981.32
2022-09-06T03:40:17.668Z,981.32
2022-09-06T03:41:17.590Z,981.30
2022-09-06T03:42:17.514Z,981.29
2022-09-06T03:43:17.435Z,981.25
2022-09-06T03:44:17.360Z,981.27
2022-09-06T03:45:17.287Z,981.28
2022-09-06T03:46:17.236Z,981.28
2022-09-06T03:47:19.624Z,981.33
2022-09-06T03:48:17.062Z,981.32
2022-09-06T03:49:16.983Z,981.33
2022-09-06T03:50:16.905Z,981.29
2022-09-06T03:51:16.822Z,981.28
2022-09-06T03:52:16.750Z,981.29
2022-09-06T03:53:16.668Z,981.23
2022-09-06T03:54:16.600Z,981.23
2022-09-06T03:55:16.519Z,981.21
2022-09-06T03:56:16.444Z,981.19
2022-09-06T03:57:16.368Z,981.22
2022-09-06T03:58:16.295Z,981.22
2022-09-06T03:59:16.213Z,981.22
2022-09-06T04:00:16.133Z,981.21
2022-09-06T04:01:16.109Z,981.22
2022-09-06T04:02:16.025Z,981.27
2022-09-06T04:03:15.910Z,981.21
2022-09-06T04:04:15.828Z,981.22
2022-09-06T04:05:15.754Z,981.27
2022-09-06T04:06:15.679Z,981.23
2022-09-06T04:07:15.602Z,981.20
2022-09-06T04:08:15.523Z,981.21
2022-09-06T04:09:15.447Z,981.21
2022-09-06T04:10:15.370Z,981.19
2022-09-06T04:11:17.337Z,981.17
2022-09-06T04:12:15.217Z,981.20
2022-09-06T04:13:15.143Z,981.19
2022-09-06T04:14:15.059Z,981.18
2022-09-06T04:15:14.987Z,981.19
2022-09-06T04:16:14.986Z,981.16
2022-09-06T04:17:14.831Z,981.15
2022-09-06T04:18:14.754Z,981.14
2022-09-06T04:19:14.679Z,981.15
2022-09-06T04:20:14.608Z,981.20
2022-09-06T04:21:14.530Z,981.21
2022-09-06T04:22:14.449Z,981.16
2022-09-06T04:23:14.376Z,981.18
2022-09-06T04:24:14.297Z,981.14
2022-09-06T04:25:14.223Z,981.15
2022-09-06T04:26:14.147Z,981.14
2022-09-06T04:27:14.067Z,981.11
2022-09-06T04:28:13.989Z,981.12
2022-09-06T04:29:13.913Z,981.11
2022-09-06T04:30:13.840Z,981.15
2022-09-06T04:31:13.761Z,981.15
2022-09-06T04:32:13.744Z,981.13
2022-09-06T04:33:13.605Z,981.17
2022-09-06T04:34:13.535Z,981.18
2022-09-06T04:35:13.456Z,981.21
2022-09-06T04:36:13.376Z,981.19
2022-09-06T04:37:13.310Z,981.17
2022-09-06T04:38:13.223Z,981.21
2022-09-06T04:39:13.157Z,981.22
2022-09-06T04:40:13.072Z,981.22
2022-09-06T04:41:12.994Z,981.22
2022-09-06T04:42:12.914Z,981.24
2022-09-06T04:43:12.844Z,981.29
2022-09-06T04:44:12.762Z,981.26
2022-09-06T04:45:12.695Z,981.28
2022-09-06T04:46:12.696Z,981.27
2022-09-06T04:47:12.533Z,981.30
2022-09-06T04:48:12.460Z,981.33
2022-09-06T04:49:12.378Z,981.35
2022-09-06T04:50:12.307Z,981.37
2022-09-06T04:51:12.228Z,981.35
2022-09-06T04:52:12.153Z,981.40
2022-09-06T04:53:12.074Z,981.35
2022-09-06T04:54:12.001Z,981.35
2022-09-06T04:55:11.925Z,981.36
2022-09-06T04:56:11.846Z,981.33
2022-09-06T04:57:11.768Z,981.37
2022-09-06T04:58:11.693Z,981.37
2022-09-06T04:59:11.614Z,981.38
2022-09-06T05:00:11.536Z,981.39
2022-09-06T05:01:11.558Z,981.36
2022-09-06T05:02:11.420Z,981.41
2022-09-06T05:03:11.310Z,981.42
2022-09-06T05:04:11.230Z,981.40
2022-09-06T05:05:11.153Z,981.39
2022-09-06T05:06:11.081Z,981.39
2022-09-06T05:07:11.005Z,981.38
2022-09-06T05:08:10.927Z,981.40
2022-09-06T05:09:10.857Z,981.39
2022-09-06T05:10:10.781Z,981.39
2022-09-06T05:11:10.692Z,981.34
2022-09-06T05:12:10.630Z,981.33
2022-09-06T05:13:10.545Z,981.35
2022-09-06T05:14:10.472Z,981.33
2022-09-06T05:15:10.388Z,981.28
2022-09-06T05:16:10.352Z,981.32
2022-09-06T05:17:10.241Z,981.29
2022-09-06T05:18:15.481Z,981.29
2022-09-06T05:19:10.083Z,981.29
2022-09-06T05:20:10.004Z,981.32
2022-09-06T05:21:09.926Z,981.30
2022-09-06T05:22:09.852Z,981.33
2022-09-06T05:23:09.776Z,981.33
2022-09-06T05:24:09.701Z,981.35
2022-09-06T05:25:09.665Z,981.38
2022-09-06T05:26:10.299Z,981.36
2022-09-06T05:27:09.471Z,981.43
2022-09-06T05:28:09.393Z,981.46
2022-09-06T05:29:09.312Z,981.48
2022-09-06T05:30:09.241Z,981.49
2022-09-06T05:31:09.164Z,981.51
2022-09-06T05:32:09.183Z,981.53
2022-09-06T05:33:09.011Z,981.53
2022-09-06T05:34:08.934Z,981.54
2022-09-06T05:35:08.856Z,981.51
2022-09-06T05:36:08.796Z,981.48
2022-09-06T05:37:08.703Z,981.48
2022-09-06T05:38:08.625Z,981.48
2022-09-06T05:39:08.549Z,981.45
2022-09-06T05:40:08.561Z,981.45
2022-09-06T05:41:08.404Z,981.45
2022-09-06T05:42:08.322Z,981.44
2022-09-06T05:43:08.249Z,981.45
2022-09-06T05:44:08.172Z,981.45
2022-09-06T05:45:08.094Z,981.47
2022-09-06T05:46:08.059Z,981.43
2022-09-06T05:47:07.941Z,981.43
2022-09-06T05:48:07.862Z,981.41
2022-09-06T05:49:07.820Z,981.39
2022-09-06T05:50:07.713Z,981.39
2022-09-06T05:51:07.637Z,981.42
2022-09-06T05:52:07.558Z,981.44
2022-09-06T05:53:07.479Z,981.50
2022-09-06T05:54:07.402Z,981.49
2022-09-06T05:55:07.331Z,981.49
2022-09-06T05:56:07.253Z,981.52
2022-09-06T05:57:07.182Z,981.50
2022-09-06T05:58:07.099Z,981.50
2022-09-06T05:59:07.021Z,981.51
2022-09-06T06:00:06.953Z,981.49
2022-09-06T06:01:06.932Z,981.51
2022-09-06T06:02:07.663Z,981.52
2022-09-06T06:03:06.732Z,981.53
2022-09-06T06:04:06.641Z,981.55
2022-09-06T06:05:06.562Z,981.56
2022-09-06T06:06:06.486Z,981.55
2022-09-06T06:07:06.413Z,981.56
2022-09-06T06:08:06.335Z,981.56
2022-09-06T06:09:06.260Z,981.57
2022-09-06T06:10:06.179Z,981.60
2022-09-06T06:11:06.106Z,981.61
2022-09-06T06:12:06.027Z,981.60
2022-09-06T06:13:05.956Z,981.61
2022-09-06T06:14:05.879Z,981.61
2022-09-06T06:15:05.932Z,981.62
2022-09-06T06:16:05.753Z,981.62
2022-09-06T06:17:05.651Z,981.69
2022-09-06T06:18:05.574Z,981.62
2022-09-06T06:19:05.505Z,981.61
2022-09-06T06:20:05.419Z,981.63
2022-09-06T06:21:05.341Z,981.62
2022-09-06T06:22:05.264Z,981.59
2022-09-06T06:23:05.190Z,981.59
2022-09-06T06:24:05.114Z,981.61
2022-09-06T06:25:05.039Z,981.60
2022-09-06T06:26:04.964Z,981.58
2022-09-06T06:27:04.888Z,981.62
2022-09-06T06:28:04.810Z,981.61
2022-09-06T06:29:04.734Z,981.61
2022-09-06T06:30:04.662Z,981.65
2022-09-06T06:31:04.586Z,981.68
2022-09-06T06:32:04.532Z,981.69
2022-09-06T06:33:04.428Z,981.74
2022-09-06T06:34:04.362Z,981.77
2022-09-06T06:35:04.275Z,981.76
2022-09-06T06:36:04.204Z,981.77
2022-09-06T06:37:04.124Z,981.71
2022-09-06T06:38:04.053Z,981.74
2022-09-06T06:39:03.973Z,981.75
2022-09-06T06:40:03.954Z,981.71
2022-09-06T06:41:06.861Z,981.71
2022-09-06T06:42:03.746Z,981.72
2022-09-06T06:43:03.669Z,981.66
2022-09-06T06:44:03.601Z,981.66
2022-09-06T06:45:03.519Z,981.68
2022-09-06T06:46:03.593Z,981.64
2022-09-06T06:47:03.369Z,981.63
2022-09-06T06:48:03.289Z,981.66
2022-09-06T06:49:03.218Z,981.62
2022-09-06T06:50:03.139Z,981.61
2022-09-06T06:51:03.061Z,981.65
2022-09-06T06:52:02.989Z,981.67
2022-09-06T06:53:02.912Z,981.64
2022-09-06T06:54:02.839Z,981.65
2022-09-06T06:55:02.759Z,981.65
2022-09-06T06:56:02.684Z,981.65
2022-09-06T06:57:02.613Z,981.63
2022-09-06T06:58:02.550Z,981.61
2022-09-06T06:59:02.471Z,981.60
2022-09-06T07:00:02.388Z,981.62
2022-09-06T07:01:02.418Z,981.66
2022-09-06T07:02:02.368Z,981.63
2022-09-06T07:03:02.158Z,981.65
2022-09-06T07:04:02.079Z,981.63
2022-09-06T07:05:02.152Z,981.59
2022-09-06T07:06:17.193Z,981.59
2022-09-06T07:08:01.775Z,981.55
2022-09-06T07:09:01.698Z,981.55
2022-09-06T07:11:01.559Z,981.55
2022-09-06T07:12:01.475Z,981.58
2022-09-06T07:13:01.399Z,981.56
2022-09-06T07:14:01.354Z,981.58
2022-09-06T07:15:01.248Z,981.64
2022-09-06T07:16:01.202Z,981.64
2022-09-06T07:17:01.096Z,981.64
2022-09-06T07:18:01.020Z,981.68
2022-09-06T07:19:01.318Z,981.67
2022-09-06T07:20:16.608Z,981.71
2022-09-06T07:22:04.318Z,981.73
2022-09-06T07:24:08.718Z,981.72
2022-09-06T07:25:00.497Z,981.71
2022-09-06T07:26:00.422Z,981.70
2022-09-06T07:28:03.885Z,981.69
2022-09-06T07:29:00.199Z,981.73
2022-09-06T07:30:00.167Z,981.71
2022-09-06T07:31:00.122Z,981.71
2022-09-06T07:32:15.445Z,981.76
2022-09-06T07:32:59.895Z,981.75
2022-09-06T07:33:59.821Z,981.77
2022-09-06T07:34:59.749Z,981.76
2022-09-06T07:35:59.675Z,981.75
2022-09-06T07:36:59.597Z,981.82
2022-09-06T07:37:59.521Z,981.81
2022-09-06T07:38:59.442Z,981.77
2022-09-06T07:39:59.422Z,981.78
2022-09-06T07:40:59.292Z,981.80
2022-09-06T07:41:59.214Z,981.76
2022-09-06T07:42:59.143Z,981.74
2022-09-06T07:43:59.077Z,981.73
2022-09-06T07:44:59.002Z,981.75
2022-09-06T07:45:58.919Z,981.78
2022-09-06T07:47:59.071Z,981.81
2022-09-06T07:48:58.696Z,981.84
2022-09-06T07:50:59.143Z,981.84
2022-09-06T07:51:58.598Z,981.83
2022-09-06T07:53:16.636Z,981.79
2022-09-06T07:54:19.347Z,981.76
2022-09-06T07:54:58.248Z,981.74
2022-09-06T07:55:58.178Z,981.73
2022-09-06T07:59:05.564Z,981.70
2022-09-06T08:00:05.849Z,981.65
2022-09-06T08:02:09.330Z,981.60
2022-09-06T08:03:09.212Z,981.51
2022-09-06T08:04:09.139Z,981.51
2022-09-06T08:06:09.708Z,981.42
2022-09-06T08:09:08.767Z,981.49
2022-09-06T08:10:08.691Z,981.49
2022-09-06T08:11:08.620Z,981.47
2022-09-06T08:12:08.541Z,981.48
2022-09-06T08:13:08.473Z,981.45
2022-09-06T08:14:08.394Z,981.45
2022-09-06T08:15:08.323Z,981.44
2022-09-06T08:16:08.346Z,981.44
2022-09-06T08:17:08.170Z,981.44
2022-09-06T08:18:08.116Z,981.47
2022-09-06T08:19:08.025Z,981.47
2022-09-06T08:20:07.951Z,981.47
2022-09-06T08:21:12.060Z,981.48
2022-09-06T08:22:07.804Z,981.51
2022-09-06T08:23:07.730Z,981.50
2022-09-06T08:24:07.653Z,981.57
2022-09-06T08:25:07.584Z,981.56
2022-09-06T08:26:07.507Z,981.54
2022-09-06T08:27:07.433Z,981.55
2022-09-06T08:28:07.362Z,981.50
2022-09-06T08:29:07.278Z,981.46
2022-09-06T08:30:07.210Z,981.47
2022-09-06T08:31:07.211Z,981.42
2022-09-06T08:32:07.061Z,981.44
2022-09-06T08:33:06.984Z,981.42
2022-09-06T08:34:06.909Z,981.45
2022-09-06T08:35:06.839Z,981.45
2022-09-06T08:36:06.784Z,981.47
2022-09-06T08:37:06.689Z,981.48
2022-09-06T08:38:06.619Z,981.47
2022-09-06T08:39:06.540Z,981.51
2022-09-06T08:40:06.550Z,981.52
2022-09-06T08:41:06.390Z,981.48
2022-09-06T08:42:06.311Z,981.53
2022-09-06T08:43:06.253Z,981.52
2022-09-06T08:45:06.095Z,981.51
2022-09-06T08:46:06.022Z,981.55
2022-09-06T08:47:05.954Z,981.51
2022-09-06T08:48:05.872Z,981.49
2022-09-06T08:49:05.808Z,981.45
2022-09-06T08:50:05.727Z,981.43
2022-09-06T08:51:05.652Z,981.45
2022-09-06T08:52:05.580Z,981.38
2022-09-06T08:53:16.743Z,981.37
2022-09-06T08:54:05.428Z,981.37
2022-09-06T08:55:05.357Z,981.34
2022-09-06T08:56:05.282Z,981.34
2022-09-06T08:57:05.209Z,981.34
2022-09-06T08:58:05.127Z,981.37
2022-09-06T08:59:05.065Z,981.39
2022-09-06T09:00:06.279Z,981.36
2022-09-06T09:01:05.014Z,981.34
2022-09-06T09:02:04.900Z,981.33
2022-09-06T09:03:04.763Z,981.35
2022-09-06T09:04:04.690Z,981.35
2022-09-06T09:05:04.618Z,981.34
2022-09-06T09:06:04.547Z,981.35
2022-09-06T09:07:04.484Z,981.35
2022-09-06T09:08:04.395Z,981.43
2022-09-06T09:09:04.320Z,981.37
2022-09-06T09:10:04.248Z,981.37
2022-09-06T09:11:04.174Z,981.38
2022-09-06T09:12:04.102Z,981.39
2022-09-06T09:13:04.025Z,981.40
2022-09-06T09:14:03.953Z,981.42
2022-09-06T09:15:03.880Z,981.40
2022-09-06T09:16:03.855Z,981.35
2022-09-06T09:17:03.740Z,981.35
2022-09-06T09:18:03.655Z,981.34
2022-09-06T09:19:03.582Z,981.32
2022-09-06T09:20:03.507Z,981.36
2022-09-06T09:21:03.433Z,981.33
2022-09-06T09:22:03.359Z,981.35
2022-09-06T09:23:03.286Z,981.35
2022-09-06T09:24:03.215Z,981.36
2022-09-06T09:25:03.137Z,981.33
2022-09-06T09:26:03.064Z,981.36
2022-09-06T09:27:02.995Z,981.26
2022-09-06T09:28:02.916Z,981.21
2022-09-06T09:29:02.848Z,981.29
2022-09-06T09:31:02.743Z,981.31
2022-09-06T09:32:02.635Z,981.31
2022-09-06T09:33:02.561Z,981.25
2022-09-06T09:34:02.480Z,981.27
2022-09-06T09:35:02.404Z,981.30
2022-09-06T09:36:02.333Z,981.29
2022-09-06T09:38:07.845Z,981.24
2022-09-06T09:39:02.108Z,981.21
2022-09-06T09:40:02.146Z,981.21
2022-09-06T09:41:01.964Z,981.21
2022-09-06T09:42:01.883Z,981.17
2022-09-06T09:43:01.816Z,981.15
2022-09-06T09:44:04.715Z,981.14
2022-09-06T09:45:01.663Z,981.16
2022-09-06T09:46:01.591Z,981.13
2022-09-06T09:47:01.572Z,981.17
2022-09-06T09:48:01.456Z,981.18
2022-09-06T09:49:01.377Z,981.23
2022-09-06T09:50:01.302Z,981.23
2022-09-06T09:51:01.227Z,981.19
2022-09-06T09:52:01.149Z,981.15
2022-09-06T09:53:01.076Z,981.15
2022-09-06T09:54:01.022Z,981.19
2022-09-06T09:55:00.940Z,981.15
2022-09-06T09:56:00.861Z,981.08
2022-09-06T09:57:00.783Z,981.04
2022-09-06T09:58:00.717Z,981.00
2022-09-06T09:59:00.644Z,980.96
2022-09-06T10:00:00.578Z,981.01
2022-09-06T10:01:00.582Z,981.05
2022-09-06T10:02:00.423Z,980.98
2022-09-06T10:03:00.411Z,980.99
2022-09-06T10:05:00.214Z,980.92
2022-09-06T10:06:02.737Z,980.91
2022-09-06T10:07:59.985Z,980.90
2022-09-06T10:08:59.914Z,980.85
2022-09-06T10:09:59.837Z,980.83
2022-09-06T10:10:59.762Z,980.82
2022-09-06T10:11:59.694Z,980.81
2022-09-06T10:12:59.619Z,980.79
2022-09-06T10:13:59.546Z,980.77
2022-09-06T10:15:02.287Z,980.76
2022-09-06T10:15:59.470Z,980.79
2022-09-06T10:16:59.326Z,980.78
2022-09-06T10:17:59.254Z,980.80
2022-09-06T10:18:59.184Z,980.74
2022-09-06T10:19:59.124Z,980.73
2022-09-06T10:20:59.034Z,980.77
2022-09-06T10:21:58.964Z,980.78
2022-09-06T10:22:58.891Z,980.81
2022-09-06T10:24:58.748Z,980.77
2022-09-06T10:25:58.670Z,980.72
2022-09-06T10:26:58.599Z,980.71
2022-09-06T10:28:12.627Z,980.73
2022-09-06T10:28:58.454Z,980.68
2022-09-06T10:29:58.389Z,980.66
2022-09-06T10:30:58.329Z,980.66
2022-09-06T10:31:58.240Z,980.68
2022-09-06T10:32:58.163Z,980.69
2022-09-06T10:33:58.093Z,980.68
2022-09-06T10:34:58.020Z,980.67
2022-09-06T10:35:57.946Z,980.66
2022-09-06T10:36:57.881Z,980.65
2022-09-06T10:37:57.820Z,980.64
2022-09-06T10:39:02.961Z,980.63
2022-09-06T10:39:57.733Z,980.58
2022-09-06T10:40:57.583Z,980.59
2022-09-06T10:41:57.512Z,980.59
2022-09-06T10:42:57.465Z,980.55
2022-09-06T10:43:57.365Z,980.57
2022-09-06T10:44:57.300Z,980.59
2022-09-06T10:45:57.221Z,980.53
2022-09-06T10:46:57.218Z,980.50
2022-09-06T10:47:57.854Z,980.48
2022-09-06T10:48:57.011Z,980.49
2022-09-06T10:49:56.940Z,980.47
2022-09-06T10:50:56.867Z,980.49
2022-09-06T10:51:56.792Z,980.46
2022-09-06T10:52:56.724Z,980.44
2022-09-06T10:53:56.655Z,980.48
2022-09-06T10:54:56.584Z,980.50
2022-09-06T10:55:59.772Z,980.52
2022-09-06T10:56:56.431Z,980.46
2022-09-06T10:59:56.214Z,980.42
2022-09-06T11:00:56.145Z,980.41
2022-09-06T11:01:56.187Z,980.42
2022-09-06T11:03:58.538Z,980.35
2022-09-06T11:05:55.788Z,980.40
2022-09-06T11:06:55.717Z,980.35
2022-09-06T11:08:58.096Z,980.31
2022-09-06T11:09:55.499Z,980.31
2022-09-06T11:10:55.440Z,980.31
2022-09-06T11:11:55.356Z,980.35
2022-09-06T11:12:55.288Z,980.33
2022-09-06T11:13:55.221Z,980.25
2022-09-06T11:14:55.142Z,980.25
2022-09-06T11:15:55.146Z,980.21
2022-09-06T11:16:54.997Z,980.23
2022-09-06T11:17:54.927Z,980.22
2022-09-06T11:18:54.867Z,980.21
2022-09-06T11:19:54.788Z,980.20
2022-09-06T11:20:54.712Z,980.21
2022-09-06T11:21:54.646Z,980.22
2022-09-06T11:22:54.568Z,980.27
2022-09-06T11:23:54.503Z,980.25
2022-09-06T11:24:54.430Z,980.20
2022-09-06T11:25:54.359Z,980.23
2022-09-06T11:26:54.288Z,980.23
2022-09-06T11:27:57.938Z,980.24
2022-09-06T11:28:54.144Z,980.22
2022-09-06T11:29:54.077Z,980.17
2022-09-06T11:30:54.061Z,980.19
2022-09-06T11:32:53.862Z,980.13
2022-09-06T11:33:54.542Z,980.15
2022-09-06T11:34:53.720Z,980.12
2022-09-06T11:35:53.656Z,980.07
2022-09-06T11:36:53.580Z,980.07
2022-09-06T11:37:53.522Z,980.06
2022-09-06T11:38:53.436Z,980.06
2022-09-06T11:40:53.305Z,980.02
2022-09-06T11:41:53.227Z,980.03
2022-09-06T11:42:53.159Z,980.10
2022-09-06T11:43:53.088Z,980.05
2022-09-06T11:44:53.018Z,980.01
2022-09-06T11:45:52.953Z,980.00
2022-09-06T11:46:52.945Z,979.97
2022-09-06T11:47:52.875Z,979.98
2022-09-06T11:48:52.732Z,979.96
2022-09-06T11:49:52.665Z,979.96
2022-09-06T11:50:52.601Z,980.01
2022-09-06T11:51:52.522Z,979.97
2022-09-06T11:52:52.466Z,979.91
2022-09-06T11:53:52.378Z,979.89
2022-09-06T11:54:52.309Z,979.88
2022-09-06T11:55:52.239Z,979.95
2022-09-06T11:56:52.171Z,979.82
2022-09-06T11:57:52.104Z,979.87
2022-09-06T11:58:52.036Z,979.84
2022-09-06T11:59:51.966Z,979.91
2022-09-06T12:00:51.897Z,979.80
2022-09-06T12:01:51.820Z,979.77
2022-09-06T12:02:51.979Z,979.77
2022-09-06T12:04:07.935Z,979.81
2022-09-06T12:04:51.639Z,979.79
2022-09-06T12:05:51.548Z,979.76
2022-09-06T12:06:51.477Z,979.83
2022-09-06T12:07:51.407Z,979.86
2022-09-06T12:08:51.339Z,979.82
2022-09-06T12:09:51.269Z,979.86
2022-09-06T12:10:51.202Z,979.85
2022-09-06T12:11:51.134Z,979.81
2022-09-06T12:12:51.057Z,979.84
2022-09-06T12:13:50.997Z,979.79
2022-09-06T12:14:50.928Z,979.81
2022-09-06T12:15:50.906Z,979.77
2022-09-06T12:16:50.797Z,979.77
2022-09-06T12:17:50.728Z,979.81
2022-09-06T12:18:50.661Z,979.77
2022-09-06T12:19:50.593Z,979.83
2022-09-06T12:20:50.531Z,979.77
2022-09-06T12:21:50.462Z,979.84
2022-09-06T12:22:50.401Z,979.78
2022-09-06T12:23:50.338Z,979.79
2022-09-06T12:24:50.285Z,979.76
2022-09-06T12:25:50.208Z,979.71
2022-09-06T12:26:55.003Z,979.78
2022-09-06T12:27:50.082Z,979.77
2022-09-06T12:28:50.013Z,979.74
2022-09-06T12:29:49.947Z,979.69
2022-09-06T12:30:49.927Z,979.73
2022-09-06T12:31:49.911Z,979.72
2022-09-06T12:32:49.762Z,979.74
2022-09-06T12:33:49.698Z,979.69
2022-09-06T12:35:57.174Z,979.67
2022-09-06T12:36:49.515Z,979.60
2022-09-06T12:37:49.452Z,979.63
2022-09-06T12:38:49.389Z,979.59
2022-09-06T12:39:49.373Z,979.65
2022-09-06T12:40:49.268Z,979.62
2022-09-06T12:41:49.213Z,979.71
2022-09-06T12:42:49.152Z,979.69
2022-09-06T12:43:49.088Z,979.57
2022-09-06T12:44:49.033Z,979.58
2022-09-06T12:45:48.972Z,979.57
2022-09-06T12:46:48.981Z,979.53
2022-09-06T12:47:48.862Z,979.49
2022-09-06T12:48:48.784Z,979.49
2022-09-06T12:49:48.727Z,979.45
2022-09-06T12:50:48.667Z,979.37
2022-09-06T12:51:48.609Z,979.38
2022-09-06T12:52:48.547Z,979.37
2022-09-06T12:53:48.493Z,979.41
2022-09-06T12:54:48.434Z,979.39